Time;durP1;ratioP1;P1;durP2;ratioP2;P2;SDS_P1;SDS_P2;PMS_P1;PMS_P2;Temp;Humidity;BMP_temperature;BMP_pressure;BME280_temperature;BME280_humidity;BME280_pressure;Samples;Min_cycle;Max_cycle;Signal;HPM_P1;HPM_P2
2022/06/21 00:00:42;;;;;;;2.20;2.00;;;13.20;99.90;;;;;;5045372;28;20025;-72
2022/06/21 00:03:13;;;;;;;1.88;1.75;;;13.10;99.90;;;;;;5037765;28;20514;-72
2022/06/21 00:05:43;;;;;;;2.00;1.75;;;13.20;99.90;;;;;;5037738;28;20049;-72
2022/06/21 00:08:18;;;;;;;3.55;1.77;;;13.20;99.90;;;;;;5055701;28;20386;-71
2022/06/21 00:10:45;;;;;;;2.05;1.85;;;13.20;99.90;;;;;;5055541;28;20564;-72
2022/06/21 00:13:17;;;;;;;1.90;1.80;;;13.10;99.90;;;;;;5037583;28;20067;-73
2022/06/21 00:15:45;;;;;;;2.77;1.67;;;13.00;99.90;;;;;;5055471;28;20044;-72
2022/06/21 00:18:17;;;;;;;2.45;1.85;;;13.00;99.90;;;;;;5063455;28;20028;-72
2022/06/21 00:20:44;;;;;;;2.17;1.83;;;13.00;99.90;;;;;;5057301;28;20027;-73
2022/06/21 00:23:14;;;;;;;4.15;1.90;;;13.00;99.90;;;;;;5075307;28;20024;-72
2022/06/21 00:25:41;;;;;;;2.40;2.20;;;13.00;99.90;;;;;;5057407;28;20050;-73
2022/06/21 00:28:06;;;;;;;2.53;2.33;;;13.00;99.90;;;;;;5075150;28;20489;-73
2022/06/21 00:30:32;;;;;;;2.10;2.00;;;13.00;99.90;;;;;;5057146;28;20036;-72
2022/06/21 00:32:58;;;;;;;2.35;2.15;;;13.00;99.90;;;;;;5057212;28;20093;-72
2022/06/21 00:35:25;;;;;;;5.15;2.40;;;12.90;99.90;;;;;;5075105;28;20323;-71
2022/06/21 00:37:53;;;;;;;3.85;2.33;;;12.90;99.90;;;;;;5057073;28;20021;-71
2022/06/21 00:40:31;;;;;;;2.63;2.28;;;12.90;99.90;;;;;;5074985;28;20363;-71
2022/06/21 00:43:18;;;;;;;2.75;2.40;;;12.90;99.90;;;;;;5074939;28;20024;-71
2022/06/21 00:45:47;;;;;;;3.00;2.45;;;12.80;99.90;;;;;;5056972;28;20377;-73
2022/06/21 00:48:27;;;;;;;4.88;2.50;;;12.90;99.90;;;;;;5074852;28;20024;-71
2022/06/21 00:51:05;;;;;;;2.63;2.42;;;12.80;99.90;;;;;;5074739;28;20438;-72
2022/06/21 00:53:36;;;;;;;4.07;2.85;;;12.90;99.90;;;;;;5074663;28;20020;-72
2022/06/21 00:56:21;;;;;;;3.45;3.15;;;12.80;99.90;;;;;;5056810;28;20385;-71
2022/06/21 00:58:47;;;;;;;2.97;2.63;;;12.80;99.90;;;;;;5074538;28;20028;-72
2022/06/21 01:01:22;;;;;;;3.75;2.60;;;12.70;99.90;;;;;;5039596;28;20100;-72
2022/06/21 01:03:58;;;;;;;5.43;2.50;;;12.80;99.90;;;;;;5054490;28;20025;-71
2022/06/21 01:06:38;;;;;;;4.90;3.25;;;12.80;99.90;;;;;;5054562;28;20049;-72
2022/06/21 01:09:11;;;;;;;4.35;2.83;;;12.80;99.90;;;;;;5036535;28;20017;-72
2022/06/21 01:11:45;;;;;;;2.70;2.38;;;12.80;99.90;;;;;;5054543;28;20429;-72
2022/06/21 01:14:12;;;;;;;2.80;2.55;;;12.90;99.90;;;;;;5054294;28;20108;-72
2022/06/21 01:16:39;;;;;;;3.60;3.08;;;12.90;99.90;;;;;;5054356;28;20017;-72
2022/06/21 01:19:32;;;;;;;2.50;2.30;;;13.00;99.90;;;;;;5052303;28;20027;-72
2022/06/21 01:22:05;;;;;;;3.30;3.00;;;13.00;99.90;;;;;;5056250;28;20020;-74
2022/06/21 01:25:00;;;;;;;3.42;3.20;;;12.90;99.90;;;;;;5056301;28;20386;-72
2022/06/21 01:27:26;;;;;;;6.40;3.40;;;13.00;99.90;;;;;;5063697;28;20048;-71
2022/06/21 01:29:53;;;;;;;3.40;3.10;;;12.90;99.90;;;;;;5073853;28;20032;-72
2022/06/21 01:32:19;;;;;;;3.10;2.83;;;12.90;99.90;;;;;;5073533;28;20029;-72
2022/06/21 01:34:44;;;;;;;3.38;3.05;;;12.90;99.90;;;;;;5073890;28;20107;-72
2022/06/21 01:37:21;;;;;;;3.63;3.33;;;12.80;99.90;;;;;;5073929;28;20025;-73
2022/06/21 01:40:08;;;;;;;4.22;3.30;;;12.80;99.90;;;;;;5073818;28;20035;-72
2022/06/21 01:42:47;;;;;;;2.95;2.75;;;12.80;99.90;;;;;;5055998;28;20075;-72
2022/06/21 01:45:24;;;;;;;3.72;3.30;;;12.80;99.90;;;;;;5055743;28;20017;-72
2022/06/21 01:47:57;;;;;;;8.00;3.22;;;12.80;99.90;;;;;;5073773;28;20016;-73
2022/06/21 01:50:23;;;;;;;4.70;3.22;;;12.70;99.90;;;;;;5073562;28;20040;-72
2022/06/21 01:52:52;;;;;;;3.35;3.03;;;12.80;99.90;;;;;;5073839;28;20020;-72
2022/06/21 01:55:28;;;;;;;3.53;3.22;;;12.70;99.90;;;;;;5073544;28;20023;-72
2022/06/21 01:57:55;;;;;;;2.80;2.60;;;12.80;99.90;;;;;;5055751;28;20073;-72
2022/06/21 02:00:21;;;;;;;5.22;3.40;;;12.80;99.90;;;;;;5063237;28;20024;-73
2022/06/21 02:02:53;;;;;;;4.05;2.72;;;12.60;99.90;;;;;;5019437;28;20036;-72
2022/06/21 02:05:28;;;;;;;4.35;3.45;;;12.60;99.90;;;;;;5032183;28;20092;-72
2022/06/21 02:07:58;;;;;;;4.63;3.38;;;12.60;99.90;;;;;;5033711;28;20017;-73
2022/06/21 02:10:37;;;;;;;4.15;3.20;;;12.60;99.90;;;;;;5033432;28;20030;-72
2022/06/21 02:13:32;;;;;;;3.42;2.97;;;12.60;99.90;;;;;;5033749;28;20025;-72
2022/06/21 02:16:08;;;;;;;5.75;4.15;;;12.60;99.90;;;;;;5031508;28;20041;-72
2022/06/21 02:18:39;;;;;;;6.30;3.13;;;12.60;99.90;;;;;;5044136;28;20021;-73
2022/06/21 02:21:18;;;;;;;4.30;3.75;;;12.60;99.90;;;;;;5053515;28;20118;-73
2022/06/21 02:23:50;;;;;;;6.03;3.70;;;12.40;99.90;;;;;;5053428;28;20028;-72
2022/06/21 02:26:15;;;;;;;4.18;3.78;;;12.40;99.90;;;;;;5052184;28;20061;-72
2022/06/21 02:28:42;;;;;;;4.55;3.83;;;12.30;99.90;;;;;;5051990;28;20419;-72
2022/06/21 02:31:08;;;;;;;4.47;4.07;;;12.20;99.90;;;;;;5035409;28;20437;-72
2022/06/21 02:33:34;;;;;;;5.90;4.32;;;12.20;99.90;;;;;;5053313;28;20040;-72
2022/06/21 02:36:05;;;;;;;5.38;3.90;;;12.10;99.90;;;;;;5051935;28;20033;-72
2022/06/21 02:38:36;;;;;;;6.80;4.05;;;12.00;99.90;;;;;;5053319;28;20044;-72
2022/06/21 02:41:13;;;;;;;7.03;5.28;;;12.00;99.90;;;;;;5052028;28;20021;-71
2022/06/21 02:43:46;;;;;;;6.65;3.67;;;11.90;99.90;;;;;;5054369;28;20021;-73
2022/06/21 02:46:30;;;;;;;5.15;3.95;;;11.80;99.90;;;;;;5057106;28;20123;-72
2022/06/21 02:49:27;;;;;;;4.63;4.22;;;11.80;99.90;;;;;;5057046;28;20102;-71
2022/06/21 02:51:59;;;;;;;4.40;4.00;;;11.80;99.90;;;;;;5054906;28;20037;-72
2022/06/21 02:54:34;;;;;;;;;;;11.70;99.90;;;;;;5056093;28;20425;-71
2022/06/21 02:57:20;;;;;;;5.43;4.05;;;11.60;99.90;;;;;;5057310;28;19905;-71
2022/06/21 02:59:47;;;;;;;8.73;4.53;;;11.60;99.90;;;;;;5049860;28;20025;-72
2022/06/21 03:02:16;;;;;;;5.72;5.07;;;11.60;99.90;;;;;;5037049;28;20391;-72
2022/06/21 03:04:55;;;;;;;5.95;4.60;;;11.50;99.90;;;;;;5035861;28;20034;-72
2022/06/21 03:07:27;;;;;;;7.75;5.35;;;11.60;99.90;;;;;;5038929;28;20534;-72
2022/06/21 03:09:54;;;;;;;6.63;4.93;;;11.70;99.90;;;;;;5038757;28;20044;-73
2022/06/21 03:12:23;;;;;;;7.03;5.28;;;11.60;99.90;;;;;;5038801;28;20302;-73
2022/06/21 03:14:52;;;;;;;7.57;5.63;;;11.60;99.90;;;;;;5056566;28;20021;-71
2022/06/21 03:17:21;;;;;;;7.72;5.82;;;11.60;99.90;;;;;;5058369;28;20471;-71
2022/06/21 03:19:50;;;;;;;9.23;6.82;;;11.60;99.90;;;;;;5076405;28;20031;-72
2022/06/21 03:22:18;;;;;;;9.35;6.05;;;11.50;99.90;;;;;;5076484;28;20062;-72
2022/06/21 03:24:45;;;;;;;8.20;6.13;;;11.60;99.90;;;;;;5076304;28;20032;-72
2022/06/21 03:27:17;;;;;;;9.32;6.40;;;11.60;99.90;;;;;;5076399;28;20056;-72
2022/06/21 03:29:42;;;;;;;7.75;6.15;;;11.50;99.90;;;;;;5076218;28;20049;-72
2022/06/21 03:32:09;;;;;;;11.48;7.28;;;11.60;99.90;;;;;;5058397;28;20109;-73
2022/06/21 03:34:35;;;;;;;9.35;7.05;;;11.60;99.90;;;;;;5076367;28;20027;-72
2022/06/21 03:37:01;;;;;;;8.93;7.85;;;11.60;99.90;;;;;;5076236;28;20021;-72
2022/06/21 03:42:17;;;;;;;8.73;6.50;;;11.80;99.90;;;;;;5076429;28;20064;-73
2022/06/21 03:44:55;;;;;;;7.93;6.13;;;12.00;99.90;;;;;;5076079;28;20474;-72
2022/06/21 03:47:34;;;;;;;9.30;6.32;;;12.20;99.90;;;;;;5076156;28;20025;-72
2022/06/21 03:50:33;;;;;;;6.13;5.32;;;12.40;99.90;;;;;;5075905;28;20444;-72
2022/06/21 03:53:19;;;;;;;6.68;6.00;;;12.60;99.90;;;;;;5060934;28;20064;-72
2022/06/21 03:56:03;;;;;;;9.60;5.63;;;12.90;99.90;;;;;;5075403;28;20024;-72
2022/06/21 03:58:28;;;;;;;6.07;4.80;;;13.10;99.90;;;;;;5075982;28;20103;-73
2022/06/21 04:01:00;;;;;;;5.20;4.70;;;13.20;99.90;;;;;;5060192;28;20117;-72
2022/06/21 04:03:35;;;;;;;5.55;4.63;;;13.40;99.90;;;;;;5037845;28;20029;-72
2022/06/21 04:06:11;;;;;;;5.18;4.70;;;13.50;99.90;;;;;;5055772;28;20052;-72
2022/06/21 04:08:49;;;;;;;6.53;4.85;;;13.70;99.90;;;;;;5055742;28;20021;-72
2022/06/21 04:11:18;;;;;;;5.38;4.88;;;13.80;99.90;;;;;;5055457;28;20506;-73
2022/06/21 04:14:11;;;;;;;5.32;4.85;;;13.90;99.90;;;;;;5055601;28;20044;-72
2022/06/21 04:16:41;;;;;;;;;;;14.10;99.90;;;;;;5037915;28;20028;-72
2022/06/21 04:19:20;;;;;;;6.00;4.70;;;13.80;99.90;;;;;;5072674;28;19904;-72
2022/06/21 04:21:55;;;;;;;7.35;4.80;;;13.90;99.90;;;;;;5075494;28;20025;-73
2022/06/21 04:24:38;;;;;;;6.25;5.68;;;13.90;99.90;;;;;;5057432;28;20054;-72
2022/06/21 04:27:27;;;;;;;7.25;5.50;;;13.90;99.90;;;;;;5075321;28;20040;-72
2022/06/21 04:30:05;;;;;;;5.65;5.00;;;13.80;99.90;;;;;;5061216;28;20391;-73
2022/06/21 04:32:34;;;;;;;6.65;5.05;;;13.90;99.90;;;;;;5075157;28;20013;-72
2022/06/21 04:35:06;;;;;;;8.02;5.97;;;13.90;99.90;;;;;;5057216;28;20020;-72
2022/06/21 04:37:36;;;;;;;8.60;6.40;;;13.90;99.90;;;;;;5075167;28;20028;-72
2022/06/21 04:40:17;;;;;;;7.97;5.78;;;13.80;99.90;;;;;;5074975;28;20048;-72
2022/06/21 04:43:03;;;;;;;11.77;7.53;;;13.80;99.90;;;;;;5075024;28;20016;-72
2022/06/21 04:45:38;;;;;;;8.68;6.13;;;13.60;99.90;;;;;;5074847;28;20025;-72
2022/06/21 04:48:08;;;;;;;7.18;5.88;;;13.50;99.90;;;;;;5074910;28;20501;-72
2022/06/21 04:50:40;;;;;;;9.02;6.35;;;13.60;99.90;;;;;;5074639;28;20031;-73
2022/06/21 04:53:20;;;;;;;;;;;13.70;99.90;;;;;;5075298;28;20108;-72
2022/06/21 04:55:58;;;;;;;7.50;5.65;;;13.90;99.90;;;;;;5056637;28;19908;-72
2022/06/21 04:58:24;;;;;;;10.02;6.55;;;13.80;99.90;;;;;;5074723;28;20021;-72
2022/06/21 05:00:51;;;;;;;10.32;5.97;;;13.90;99.90;;;;;;5059134;28;20360;-72
2022/06/21 05:03:40;;;;;;;7.70;6.90;;;13.90;99.90;;;;;;5054585;28;20021;-73
2022/06/21 05:06:07;;;;;;;11.30;6.40;;;13.70;99.90;;;;;;5053555;28;20139;-72
2022/06/21 05:08:33;;;;;;;8.23;6.55;;;13.60;99.90;;;;;;5036677;28;20451;-72
2022/06/21 05:11:00;;;;;;;14.52;7.75;;;13.40;99.90;;;;;;5054267;28;20375;-71
2022/06/21 05:13:37;;;;;;;9.45;8.07;;;13.30;99.90;;;;;;5036530;28;20029;-73
2022/06/21 05:16:11;;;;;;;14.70;8.85;;;13.10;99.90;;;;;;5054366;28;20373;-72
2022/06/21 05:18:43;;;;;;;8.75;7.85;;;13.10;99.90;;;;;;5049762;28;20101;-73
2022/06/21 05:21:34;;;;;;;10.90;9.50;;;13.10;99.90;;;;;;5056219;28;20102;-72
2022/06/21 05:24:00;;;;;;;10.45;8.77;;;13.10;99.90;;;;;;5064674;28;20047;-75
2022/06/21 05:26:58;;;;;;;11.40;8.57;;;13.10;99.90;;;;;;5074041;28;20557;-72
2022/06/21 05:29:43;;;;;;;9.77;8.77;;;13.20;99.90;;;;;;5063284;28;20048;-71
2022/06/21 05:32:16;;;;;;;11.20;8.70;;;13.20;99.90;;;;;;5074007;28;20028;-72
2022/06/21 05:34:46;;;;;;;8.57;7.35;;;13.20;99.90;;;;;;5074148;28;20031;-71
2022/06/21 05:37:36;;;;;;;8.70;7.70;;;13.30;99.90;;;;;;5073959;28;20024;-71
2022/06/21 05:40:13;;;;;;;10.75;7.60;;;13.20;99.90;;;;;;5073978;28;20034;-72
2022/06/21 05:42:40;;;;;;;7.32;6.57;;;13.10;99.90;;;;;;5073846;28;20081;-71
2022/06/21 05:45:14;;;;;;;6.93;6.25;;;13.20;99.90;;;;;;5073830;28;20067;-71
2022/06/21 05:47:49;;;;;;;7.78;6.32;;;13.20;99.90;;;;;;5073697;28;20065;-71
2022/06/21 05:50:28;;;;;;;8.98;5.82;;;13.20;99.90;;;;;;5073595;28;20028;-71
2022/06/21 05:52:57;;;;;;;7.68;6.85;;;13.10;99.90;;;;;;5073673;28;20398;-72
2022/06/21 05:55:37;;;;;;;7.20;5.97;;;13.20;99.90;;;;;;5055676;28;20016;-71
2022/06/21 05:58:11;;;;;;;7.28;5.50;;;13.40;99.90;;;;;;5073729;28;20378;-72
2022/06/21 06:00:45;;;;;;;6.70;4.97;;;13.30;99.90;;;;;;5059826;28;20399;-73
2022/06/21 06:03:19;;;;;;;7.38;5.25;;;13.50;99.90;;;;;;5053585;28;20028;-71
2022/06/21 06:05:46;;;;;;;4.75;4.35;;;13.50;99.90;;;;;;5053500;28;20406;-72
2022/06/21 06:08:18;;;;;;;4.78;4.38;;;13.40;99.90;;;;;;5035535;28;20036;-72
2022/06/21 06:10:46;;;;;;;8.45;4.68;;;13.40;99.90;;;;;;5035532;28;20044;-72
2022/06/21 06:13:25;;;;;;;8.20;4.97;;;13.40;99.90;;;;;;5053385;28;20056;-71
2022/06/21 06:15:53;;;;;;;4.28;3.95;;;13.40;99.90;;;;;;5035441;28;20020;-72
2022/06/21 06:18:50;;;;;;;5.03;4.53;;;13.40;98.40;;;;;;5064423;28;20367;-72
2022/06/21 06:21:40;;;;;;;4.53;4.13;;;13.40;97.70;;;;;;5073349;28;20385;-75
2022/06/21 06:24:06;;;;;;;6.30;4.35;;;13.60;95.10;;;;;;5073403;28;20024;-74
2022/06/21 06:26:36;;;;;;;4.97;3.58;;;13.80;91.30;;;;;;5073370;28;20017;-74
2022/06/21 06:29:15;;;;;;;6.68;4.72;;;13.80;90.70;;;;;;5073258;28;20023;-71
2022/06/21 06:31:48;;;;;;;6.10;3.85;;;13.80;90.10;;;;;;5073461;28;20031;-72
2022/06/21 06:34:23;;;;;;;8.48;5.85;;;13.70;90.40;;;;;;5073138;28;20035;-71
2022/06/21 06:36:53;;;;;;;5.63;3.75;;;13.70;87.90;;;;;;5055396;28;20024;-72
2022/06/21 06:39:27;;;;;;;3.97;3.55;;;13.90;86.70;;;;;;5073220;28;20021;-72
2022/06/21 06:42:17;;;;;;;5.35;3.20;;;14.00;87.50;;;;;;5055273;28;20028;-71
2022/06/21 06:44:49;;;;;;;3.38;3.08;;;14.40;80.80;;;;;;5073154;28;20020;-72
2022/06/21 06:47:19;;;;;;;6.15;3.30;;;14.50;83.50;;;;;;5073082;28;20113;-71
2022/06/21 06:49:57;;;;;;;7.85;4.10;;;14.40;83.10;;;;;;5073010;28;20060;-72
2022/06/21 06:52:38;;;;;;;3.22;3.00;;;14.10;78.80;;;;;;5073129;28;20016;-71
2022/06/21 06:55:19;;;;;;;3.42;2.95;;;13.80;82.60;;;;;;5073335;28;20020;-72
2022/06/21 06:57:51;;;;;;;2.97;2.78;;;14.10;80.80;;;;;;5073003;28;20482;-71
2022/06/21 07:00:28;;;;;;;6.70;2.60;;;14.20;83.20;;;;;;5061608;28;20056;-72
2022/06/21 07:03:27;;;;;;;4.72;3.58;;;14.10;80.80;;;;;;5053001;28;20490;-71
2022/06/21 07:06:17;;;;;;;3.22;2.55;;;14.00;80.20;;;;;;5034901;28;20045;-72
2022/06/21 07:09:01;;;;;;;5.10;3.38;;;13.90;82.30;;;;;;5052906;28;20474;-72
2022/06/21 07:11:38;;;;;;;8.35;4.60;;;14.00;83.10;;;;;;5052936;28;20044;-71
2022/06/21 07:14:15;;;;;;;3.83;2.45;;;14.40;80.20;;;;;;5052805;28;20032;-72
2022/06/21 07:16:41;;;;;;;4.90;2.45;;;14.70;78.60;;;;;;5052744;28;20017;-72
2022/06/21 07:19:10;;;;;;;2.10;1.90;;;14.80;74.40;;;;;;5070960;28;20406;-72
2022/06/21 07:21:37;;;;;;;3.47;2.30;;;14.90;74.00;;;;;;5072778;28;20054;-72
2022/06/21 07:24:09;;;;;;;3.05;2.45;;;14.80;76.10;;;;;;5054855;28;20029;-71
2022/06/21 07:26:47;;;;;;;3.97;3.15;;;14.50;76.00;;;;;;5072893;28;20040;-71
2022/06/21 07:29:34;;;;;;;2.55;2.20;;;14.10;77.60;;;;;;5054854;28;20020;-72
2022/06/21 07:32:09;;;;;;;4.85;2.40;;;13.90;79.10;;;;;;5076393;28;20496;-71
2022/06/21 07:34:52;;;;;;;5.68;2.40;;;13.70;80.20;;;;;;5076415;28;20066;-71
2022/06/21 07:37:41;;;;;;;4.95;2.78;;;13.60;81.50;;;;;;5076314;28;20036;-71
2022/06/21 07:40:13;;;;;;;2.85;2.65;;;13.40;80.60;;;;;;5064561;28;20028;-72
2022/06/21 07:42:45;;;;;;;3.70;2.20;;;13.30;80.20;;;;;;5058228;28;20042;-72
2022/06/21 07:45:16;;;;;;;2.00;1.80;;;13.60;79.40;;;;;;5076061;28;20021;-72
2022/06/21 07:47:55;;;;;;;2.42;1.83;;;13.90;77.70;;;;;;5075999;28;20099;-72
2022/06/21 07:50:44;;;;;;;1.65;1.55;;;14.00;75.90;;;;;;5076069;28;20032;-71
2022/06/21 07:53:18;;;;;;;3.00;2.80;;;14.30;77.80;;;;;;5073966;28;20033;-71
2022/06/21 07:55:51;;;;;;;4.50;2.92;;;14.60;78.30;;;;;;5057890;28;20486;-72
2022/06/21 07:58:28;;;;;;;3.08;2.65;;;14.90;77.90;;;;;;5075963;28;20024;-71
2022/06/21 08:06:46;;;;;;;2.97;2.50;;;14.90;79.00;;;;;;5055789;28;20110;-72
2022/06/21 08:09:29;;;;;;;1.83;1.63;;;14.60;77.30;;;;;;5037630;28;20053;-72
2022/06/21 08:12:00;;;;;;;1.73;1.63;;;14.40;74.50;;;;;;5037788;28;20437;-71
2022/06/21 08:14:30;;;;;;;3.97;2.33;;;14.40;74.90;;;;;;5037645;28;20100;-72
2022/06/21 08:16:58;;;;;;;2.08;1.83;;;14.50;76.10;;;;;;5055941;28;20513;-72
2022/06/21 08:19:32;;;;;;;5.18;2.10;;;14.50;74.70;;;;;;5057297;28;20064;-72
2022/06/21 08:22:04;;;;;;;4.88;1.85;;;14.70;75.20;;;;;;5075461;28;20024;-72
2022/06/21 08:24:39;;;;;;;2.17;1.90;;;14.40;72.90;;;;;;5057443;28;20394;-71
2022/06/21 08:27:23;;;;;;;1.70;1.55;;;14.40;74.20;;;;;;5057489;28;20028;-72
2022/06/21 08:30:01;;;;;;;1.45;1.35;;;14.30;74.40;;;;;;5075174;28;20032;-71
2022/06/21 08:32:41;;;;;;;2.13;1.92;;;14.20;76.50;;;;;;5057322;28;20436;-72
2022/06/21 08:35:33;;;;;;;1.77;1.55;;;14.20;76.30;;;;;;5075202;28;20032;-71
2022/06/21 08:38:22;;;;;;;6.43;3.00;;;14.20;79.10;;;;;;5075069;28;20070;-72
2022/06/21 08:41:09;;;;;;;2.05;1.58;;;14.60;81.50;;;;;;5074873;28;20021;-72
2022/06/21 08:44:06;;;;;;;1.77;1.65;;;14.70;72.10;;;;;;5075158;28;20028;-72
2022/06/21 08:47:04;;;;;;;3.22;2.10;;;15.10;74.90;;;;;;5074913;28;20017;-71
2022/06/21 08:49:36;;;;;;;1.55;1.45;;;15.20;73.20;;;;;;5074759;28;20062;-72
2022/06/21 08:52:20;;;;;;;2.05;1.35;;;15.00;72.50;;;;;;5056971;28;20048;-71
2022/06/21 08:55:10;;;;;;;3.20;1.67;;;14.70;73.60;;;;;;5074758;28;20536;-71
2022/06/21 08:57:44;;;;;;;1.60;1.50;;;14.50;73.70;;;;;;5075139;28;20017;-71
2022/06/21 09:00:33;;;;;;;1.90;1.67;;;14.30;75.00;;;;;;5063525;28;20017;-72
2022/06/21 09:03:17;;;;;;;3.25;1.90;;;14.10;77.20;;;;;;5054773;28;20056;-72
2022/06/21 09:06:19;;;;;;;2.13;1.90;;;14.10;78.10;;;;;;5054383;28;20128;-72
2022/06/21 09:09:13;;;;;;;2.30;2.03;;;14.20;78.50;;;;;;5044338;28;20037;-71
2022/06/21 09:11:54;;;;;;;5.43;2.10;;;14.40;79.30;;;;;;5054446;28;20040;-72
2022/06/21 09:14:26;;;;;;;1.80;1.70;;;14.80;77.80;;;;;;5054604;28;20417;-72
2022/06/21 09:17:11;;;;;;;4.07;1.40;;;15.10;77.00;;;;;;5054363;28;20048;-72
2022/06/21 09:19:55;;;;;;;2.92;1.15;;;15.10;74.60;;;;;;5056373;28;20032;-72
2022/06/21 09:22:26;;;;;;;2.80;1.40;;;15.00;71.40;;;;;;5074794;28;20028;-71
2022/06/21 09:25:26;;;;;;;3.63;1.30;;;15.10;71.30;;;;;;5074167;28;20024;-72
2022/06/21 09:28:15;;;;;;;1.52;1.42;;;15.60;72.60;;;;;;5074157;28;20059;-72
2022/06/21 09:30:52;;;;;;;1.48;1.40;;;15.60;71.60;;;;;;5072993;28;20044;-72
2022/06/21 09:33:36;;;;;;;1.65;1.35;;;15.70;70.40;;;;;;5074132;28;20093;-72
2022/06/21 09:36:02;;;;;;;1.92;1.73;;;16.00;70.20;;;;;;5074328;28;20021;-71
2022/06/21 09:38:35;;;;;;;7.35;1.40;;;16.00;67.70;;;;;;5056086;28;20078;-71
2022/06/21 09:41:20;;;;;;;3.90;1.30;;;15.70;66.00;;;;;;5073871;28;20390;-72
2022/06/21 09:44:05;;;;;;;2.78;1.50;;;15.60;66.30;;;;;;5073863;28;20070;-71
2022/06/21 09:46:55;;;;;;;1.65;1.55;;;15.60;68.70;;;;;;5073807;28;20028;-72
2022/06/21 09:49:59;;;;;;;1.30;1.23;;;15.50;68.40;;;;;;5055831;28;20021;-72
2022/06/21 09:52:36;;;;;;;1.65;1.15;;;15.70;68.90;;;;;;5073165;28;20029;-72
2022/06/21 09:55:21;;;;;;;2.25;1.77;;;15.80;68.60;;;;;;5073892;28;20142;-72
2022/06/21 09:57:53;;;;;;;1.77;1.67;;;16.00;67.60;;;;;;5055782;28;20021;-72
2022/06/21 10:00:50;;;;;;;2.42;1.50;;;16.30;68.80;;;;;;5061008;28;20021;-72
2022/06/21 10:03:16;;;;;;;2.15;1.83;;;16.00;69.20;;;;;;5053609;28;20076;-72
2022/06/21 10:06:17;;;;;;;2.22;2.10;;;15.70;70.40;;;;;;5035455;28;20053;-72
2022/06/21 10:09:13;;;;;;;2.92;2.72;;;15.40;69.80;;;;;;5053719;28;20060;-72
2022/06/21 10:11:47;;;;;;;1.85;1.70;;;15.50;71.20;;;;;;5053440;28;20037;-72
2022/06/21 10:14:24;;;;;;;2.17;1.92;;;15.70;70.70;;;;;;5053662;28;20490;-72
2022/06/21 10:17:28;;;;;;;5.97;3.72;;;15.90;71.40;;;;;;5035525;28;20031;-71
2022/06/21 10:20:21;;;;;;;5.95;2.85;;;16.00;69.70;;;;;;5070020;28;20043;-71
2022/06/21 10:22:56;;;;;;;3.15;2.28;;;16.30;68.90;;;;;;5055359;28;20374;-72
2022/06/21 10:25:54;;;;;;;5.93;3.05;;;16.50;69.50;;;;;;5055358;28;20025;-72
2022/06/21 10:28:55;;;;;;;7.10;3.05;;;16.20;66.80;;;;;;5055355;28;20032;-72
2022/06/21 10:31:39;;;;;;;5.00;1.90;;;16.00;65.60;;;;;;5059480;28;20044;-72
2022/06/21 10:34:29;;;;;;;8.60;2.72;;;15.60;67.80;;;;;;5073391;28;20039;-71
2022/06/21 10:37:20;;;;;;;4.78;2.53;;;15.30;71.00;;;;;;5073297;28;20063;-73
2022/06/21 10:40:13;;;;;;;2.45;2.05;;;15.00;72.10;;;;;;5055372;28;20449;-72
2022/06/21 10:43:11;;;;;;;2.40;2.00;;;15.10;72.30;;;;;;5073173;28;20399;-71
2022/06/21 10:45:50;;;;;;;3.03;2.55;;;15.30;72.40;;;;;;5042292;28;20036;-72
2022/06/21 10:48:40;;;;;;;1.83;1.73;;;16.20;73.80;;;;;;5055027;28;20066;-71
2022/06/21 10:51:27;;;;;;;4.82;1.95;;;16.20;71.10;;;;;;5073251;28;20039;-72
2022/06/21 10:54:30;;;;;;;3.45;2.10;;;15.90;69.30;;;;;;5073114;28;20032;-72
2022/06/21 10:57:16;;;;;;;2.85;1.90;;;15.90;68.90;;;;;;5055094;28;20248;-72
2022/06/21 11:02:29;;;;;;;3.28;1.80;;;15.50;70.80;;;;;;5052989;28;20039;-72
2022/06/21 11:05:40;;;;;;;1.90;1.75;;;15.30;70.90;;;;;;5054197;28;20025;-71
2022/06/21 11:08:11;;;;;;;5.03;2.05;;;15.20;71.00;;;;;;5056706;28;20402;-71
2022/06/21 11:10:43;;;;;;;2.60;2.07;;;15.20;72.20;;;;;;5038866;28;20033;-72
2022/06/21 11:13:14;;;;;;;6.17;2.50;;;15.10;72.30;;;;;;5056767;28;20025;-72
2022/06/21 11:15:58;;;;;;;2.40;2.00;;;15.10;72.60;;;;;;5038847;28;20739;-72
2022/06/21 11:18:57;;;;;;;3.47;2.25;;;15.30;72.70;;;;;;5052030;28;20027;-72
2022/06/21 11:21:48;;;;;;;3.60;1.52;;;15.70;74.20;;;;;;5076619;28;20090;-72
2022/06/21 11:24:32;;;;;;;2.00;1.90;;;16.10;70.60;;;;;;5076753;28;20020;-71
2022/06/21 11:27:24;;;;;;;3.67;2.47;;;16.30;70.80;;;;;;5076427;28;20099;-72
2022/06/21 11:30:06;;;;;;;2.67;1.93;;;16.40;68.70;;;;;;5076358;28;20029;-72
2022/06/21 11:32:38;;;;;;;2.00;1.90;;;16.20;67.10;;;;;;5058320;28;20062;-72
2022/06/21 11:35:22;;;;;;;1.83;1.67;;;16.20;69.50;;;;;;5058421;28;20115;-71
2022/06/21 11:38:17;;;;;;;2.03;1.83;;;15.70;68.90;;;;;;5058301;28;20116;-72
2022/06/21 11:40:54;;;;;;;2.08;1.77;;;15.60;71.90;;;;;;5076366;28;20030;-72
2022/06/21 11:43:29;;;;;;;1.70;1.60;;;15.50;72.10;;;;;;5076238;28;20431;-71
2022/06/21 11:46:14;;;;;;;1.60;1.50;;;15.70;72.10;;;;;;5076230;28;20150;-72
2022/06/21 11:49:15;;;;;;;1.80;1.60;;;15.60;70.80;;;;;;5076001;28;20021;-72
2022/06/21 11:52:18;;;;;;;2.78;2.45;;;15.50;72.90;;;;;;5076124;28;20509;-71
2022/06/21 11:54:47;;;;;;;3.53;1.95;;;15.40;71.90;;;;;;5057929;28;20024;-72
2022/06/21 11:57:13;;;;;;;2.08;1.70;;;15.40;74.60;;;;;;5075988;28;20016;-72
2022/06/21 11:59:59;;;;;;;2.13;1.55;;;15.40;73.00;;;;;;5068013;28;20021;-72
2022/06/21 12:02:42;;;;;;;2.38;1.65;;;15.70;72.80;;;;;;5055836;28;20025;-71
2022/06/21 12:05:27;;;;;;;;;;;15.80;68.70;;;;;;5055958;28;20040;-72
2022/06/21 12:08:23;;;;;;;1.70;1.40;;;15.80;68.60;;;;;;5037742;28;19909;-72
2022/06/21 12:10:58;;;;;;;2.85;1.67;;;15.80;67.70;;;;;;5037590;28;20033;-73
2022/06/21 12:14:04;;;;;;;2.50;1.42;;;15.60;68.60;;;;;;5055594;28;20529;-71
2022/06/21 12:16:56;;;;;;;2.00;1.38;;;15.40;69.40;;;;;;5038339;28;20124;-71
2022/06/21 12:19:32;;;;;;;2.53;1.50;;;15.80;68.90;;;;;;5055519;28;20027;-71
2022/06/21 12:22:09;;;;;;;4.00;1.60;;;16.10;70.60;;;;;;5055628;28;20032;-72
2022/06/21 12:24:35;;;;;;;6.65;1.80;;;16.20;69.70;;;;;;5055409;28;20017;-72
2022/06/21 12:27:01;;;;;;;2.45;1.90;;;16.20;69.70;;;;;;5055389;28;20029;-73
2022/06/21 12:29:28;;;;;;;2.35;1.65;;;16.20;69.10;;;;;;5055068;28;20025;-72
2022/06/21 12:32:00;;;;;;;1.85;1.70;;;16.20;68.80;;;;;;5053998;28;20021;-71
2022/06/21 12:34:26;;;;;;;;;;;16.00;68.90;;;;;;5037643;28;20028;-72
2022/06/21 12:37:02;;;;;;;3.85;1.80;;;16.00;68.60;;;;;;5055285;28;19905;-71
2022/06/21 12:39:37;;;;;;;2.35;1.60;;;16.10;68.60;;;;;;5037182;28;20028;-72
2022/06/21 12:42:28;;;;;;;5.80;1.67;;;16.20;69.50;;;;;;5055227;28;20368;-72
2022/06/21 12:45:02;;;;;;;3.22;2.05;;;16.10;67.50;;;;;;5054957;28;20017;-72
2022/06/21 12:47:40;;;;;;;1.75;1.65;;;16.30;70.40;;;;;;5055002;28;20025;-72
2022/06/21 12:50:17;;;;;;;1.75;1.65;;;16.40;67.70;;;;;;5054918;28;20041;-72
2022/06/21 12:53:16;;;;;;;4.00;1.92;;;16.40;68.80;;;;;;5037056;28;20036;-72
2022/06/21 12:55:54;;;;;;;3.67;1.98;;;16.50;66.20;;;;;;5050891;28;20543;-74
2022/06/21 12:58:52;;;;;;;2.92;1.48;;;16.50;67.00;;;;;;5054760;28;20164;-74
2022/06/21 13:01:25;;;;;;;3.38;1.50;;;16.70;66.20;;;;;;5020405;28;20364;-74
2022/06/21 13:04:02;;;;;;;1.42;1.33;;;16.80;65.40;;;;;;5054630;28;20021;-74
2022/06/21 13:07:21;;;;;;;3.35;1.80;;;16.90;66.80;;;;;;5036678;28;20144;-74
2022/06/21 13:10:08;;;;;;;3.78;1.70;;;16.90;65.00;;;;;;4973654;28;20027;-74
2022/06/21 13:12:45;;;;;;;3.45;1.77;;;16.90;66.00;;;;;;5054508;28;20029;-74
2022/06/21 13:15:17;;;;;;;4.72;1.40;;;17.20;64.20;;;;;;5036427;28;20048;-73
2022/06/21 13:18:21;;;;;;;1.10;1.10;;;17.60;64.60;;;;;;5062879;28;20082;-74
2022/06/21 13:21:06;;;;;;;1.42;1.20;;;17.80;62.00;;;;;;5074186;28;20059;-74
2022/06/21 13:23:54;;;;;;;1.85;1.50;;;17.90;61.10;;;;;;5074257;28;20429;-74
2022/06/21 13:26:26;;;;;;;2.97;1.13;;;18.30;62.20;;;;;;5074195;28;20059;-74
2022/06/21 13:29:28;;;;;;;6.57;1.40;;;18.70;58.80;;;;;;5073507;28;20031;-74
2022/06/21 13:31:58;;;;;;;1.48;1.10;;;18.60;59.80;;;;;;5056465;28;20024;-74
2022/06/21 13:34:42;;;;;;;1.73;1.27;;;18.20;59.50;;;;;;5073927;28;20024;-74
2022/06/21 13:37:18;;;;;;;1.58;1.20;;;18.30;61.90;;;;;;5073977;28;20028;-74
2022/06/21 13:39:52;;;;;;;1.48;1.33;;;18.10;61.20;;;;;;5073976;28;20492;-74
2022/06/21 13:42:40;;;;;;;3.83;1.40;;;17.90;61.20;;;;;;5073950;28;20052;-74
2022/06/21 13:45:30;;;;;;;2.58;1.48;;;17.80;61.80;;;;;;5073837;28;20052;-74
2022/06/21 13:48:18;;;;;;;1.77;1.20;;;17.90;61.90;;;;;;5055951;28;20028;-74
2022/06/21 13:51:04;;;;;;;0.90;0.90;;;17.50;62.00;;;;;;5073784;28;20036;-73
2022/06/21 13:53:57;;;;;;;1.98;1.00;;;17.20;61.90;;;;;;5073913;28;20377;-74
2022/06/21 13:56:39;;;;;;;2.20;1.45;;;17.10;62.50;;;;;;5073808;28;20050;-74